Time;durP1;ratioP1;P1;durP2;ratioP2;P2;SDS_P1;SDS_P2;PMS_P1;PMS_P2;Temp;Humidity;BMP_temperature;BMP_pressure;BME280_temperature;BME280_humidity;BME280_pressure;Samples;Min_cycle;Max_cycle;Signal;HPM_P1;HPM_P2
2021/05/27 00:09:20;;;;;;;5.67;3.50;;;;;;;10.60;67.66;99113.64;532175;1098;116194;-59
2021/05/27 00:19:26;;;;;;;7.07;4.50;;;;;;;10.53;67.93;99113.23;531024;1098;116288;-59
2021/05/27 00:29:31;;;;;;;5.77;3.37;;;;;;;10.35;67.79;99116.21;521858;1098;116231;-58
2021/05/27 00:39:36;;;;;;;4.57;3.97;;;;;;;10.24;67.75;99114.33;517994;1098;116977;-58
2021/05/27 00:49:41;;;;;;;4.73;2.58;;;;;;;10.13;67.77;99118.67;527137;1098;115927;-59
2021/05/27 00:59:46;;;;;;;3.50;2.10;;;;;;;10.09;67.98;99120.66;532138;1098;116114;-59
2021/05/27 01:09:51;;;;;;;2.20;1.90;;;;;;;10.12;67.95;99116.99;531357;1098;116000;-59
2021/05/27 01:19:56;;;;;;;3.15;2.33;;;;;;;10.08;67.87;99111.11;522777;1098;116890;-59
2021/05/27 01:30:01;;;;;;;4.87;2.53;;;;;;;10.03;68.42;99103.56;528289;1098;116412;-59
2021/05/27 01:40:08;;;;;;;3.67;2.50;;;;;;;10.06;68.29;99105.97;531409;1098;116674;-59
2021/05/27 01:50:20;;;;;;;3.43;2.53;;;;;;;10.08;68.45;99106.69;532146;1098;115783;-59
2021/05/27 02:00:26;;;;;;;4.47;2.33;;;;;;;10.03;68.34;99105.33;528539;1098;116292;-59
2021/05/27 02:10:31;;;;;;;2.38;1.60;;;;;;;9.99;68.52;99109.98;523204;1098;116661;-59
2021/05/27 02:20:37;;;;;;;3.17;2.30;;;;;;;9.97;68.92;99122.34;522604;1098;115926;-59
2021/05/27 02:30:42;;;;;;;3.93;2.07;;;;;;;9.95;68.78;99118.98;530064;1098;116773;-59
2021/05/27 02:40:47;;;;;;;4.97;2.00;;;;;;;9.90;68.87;99118.48;532118;1097;115863;-59
2021/05/27 02:50:52;;;;;;;4.13;1.90;;;;;;;10.05;68.92;99122.66;532113;1098;116088;-59
2021/05/27 03:00:57;;;;;;;2.30;1.93;;;;;;;10.24;68.95;99132.70;531387;1098;117401;-59
2021/05/27 03:11:03;;;;;;;6.57;2.43;;;;;;;10.34;68.80;99132.91;532096;1098;116594;-59
2021/05/27 03:21:08;;;;;;;4.17;2.30;;;;;;;10.47;68.32;99135.52;532112;1098;116187;-59
2021/05/27 03:31:13;;;;;;;1.73;1.50;;;;;;;10.64;68.09;99146.62;531401;1098;116176;-59
2021/05/27 03:41:18;;;;;;;2.43;1.57;;;;;;;10.95;67.87;99152.27;532182;1098;117356;-59
2021/05/27 03:51:23;;;;;;;3.60;1.90;;;;;;;11.25;67.05;99144.86;532109;1098;116464;-58
2021/05/27 04:01:29;;;;;;;3.10;2.23;;;;;;;11.28;66.46;99155.17;520421;1093;116700;-60
2021/05/27 04:11:33;;;;;;;3.53;1.93;;;;;;;11.20;66.70;99158.38;528712;1098;116329;-58
2021/05/27 04:21:38;;;;;;;2.50;1.87;;;;;;;11.54;66.68;99166.34;531393;1098;116544;-59
2021/05/27 04:31:43;;;;;;;4.17;2.20;;;;;;;14.25;63.98;99171.25;524365;1098;115910;-59
2021/05/27 04:41:48;;;;;;;5.57;1.67;;;;;;;15.30;61.68;99173.59;532096;1098;116526;-60
2021/05/27 04:51:53;;;;;;;1.90;1.40;;;;;;;15.24;59.35;99178.48;531292;1098;116853;-58
2021/05/27 05:01:58;;;;;;;2.03;1.27;;;;;;;15.03;58.49;99197.09;532076;1098;116030;-58
2021/05/27 05:12:03;;;;;;;2.80;1.20;;;;;;;14.78;58.11;99198.45;532029;1098;116232;-59
2021/05/27 05:22:09;;;;;;;1.50;0.93;;;;;;;15.53;57.89;99208.55;531436;1098;116268;-59
2021/05/27 05:32:14;;;;;;;2.83;1.60;;;;;;;15.92;56.52;99223.56;518859;1093;116259;-58
2021/05/27 05:42:19;;;;;;;7.03;1.33;;;;;;;19.97;56.38;99224.02;524743;1098;116789;-60
2021/05/27 05:52:24;;;;;;;2.83;0.90;;;;;;;20.21;48.11;99225.83;527631;1098;117529;-59
2021/05/27 06:02:29;;;;;;;4.40;0.80;;;;;;;28.27;45.30;99219.89;518747;1098;116542;-59
2021/05/27 06:12:34;;;;;;;1.13;0.80;;;;;;;33.81;33.13;99219.36;514255;1098;116522;-60
2021/05/27 06:22:40;;;;;;;1.43;0.90;;;;;;;27.68;33.58;99242.59;515057;1093;116816;-59
2021/05/27 06:32:45;;;;;;;8.13;0.90;;;;;;;30.96;30.83;99234.60;519918;1098;116543;-62
2021/05/27 06:42:50;;;;;;;5.97;0.60;;;;;;;37.66;27.87;99241.80;531325;1098;115950;-62
2021/05/27 06:52:55;;;;;;;0.90;0.45;;;;;;;34.15;24.52;99245.45;527942;1093;115425;-61
2021/05/27 07:03:01;;;;;;;0.95;0.50;;;;;;;40.02;22.09;99251.00;514356;1098;116735;-60
2021/05/27 07:13:08;;;;;;;2.40;0.57;;;;;;;44.01;18.45;99262.41;531390;1098;116276;-63
2021/05/27 07:23:13;;;;;;;0.73;0.60;;;;;;;41.88;18.31;99260.63;532066;1098;116646;-62
2021/05/27 07:33:19;;;;;;;0.75;0.75;;;;;;;46.71;16.13;99262.53;532092;1098;116808;-59
2021/05/27 07:43:24;;;;;;;2.73;1.00;;;;;;;48.34;13.49;99263.27;531333;1098;116711;-65
2021/05/27 07:53:30;;;;;;;2.87;1.00;;;;;;;38.64;15.21;99262.69;532138;1098;115748;-65
2021/05/27 08:03:35;;;;;;;1.00;0.90;;;;;;;30.90;18.94;99282.47;531245;1098;115453;-64
2021/05/27 08:13:41;;;;;;;4.25;0.53;;;;;;;27.50;21.50;99300.77;532083;1098;115808;-63
2021/05/27 08:23:46;;;;;;;2.63;0.70;;;;;;;25.60;23.85;99312.09;531986;1098;116228;-58
2021/05/27 08:33:51;;;;;;;2.20;0.60;;;;;;;25.20;24.77;99310.09;531242;1098;116684;-59
2021/05/27 08:43:57;;;;;;;2.43;0.70;;;;;;;23.69;26.00;99317.50;525614;1098;115623;-62
2021/05/27 08:54:03;;;;;;;3.23;1.20;;;;;;;23.05;27.34;99319.84;526694;1098;117107;-62
2021/05/27 09:04:07;;;;;;;1.43;0.87;;;;;;;22.11;28.81;99335.33;531372;1098;116249;-61
2021/05/27 09:14:13;;;;;;;1.83;1.00;;;;;;;21.96;29.53;99341.47;532083;1098;116036;-61
2021/05/27 09:24:18;;;;;;;0.67;0.53;;;;;;;21.84;29.75;99356.25;532001;1098;116180;-61
2021/05/27 09:34:38;;;;;;;2.40;1.23;;;;;;;21.02;30.29;99381.49;531347;1098;116426;-62
2021/05/27 09:44:43;;;;;;;1.73;1.07;;;;;;;20.11;31.21;99380.57;532074;1098;115864;-60
2021/05/27 09:54:53;;;;;;;1.10;0.70;;;;;;;20.85;31.46;99385.03;531285;1098;116480;-60
2021/05/27 10:05:10;;;;;;;1.00;0.90;;;;;;;21.20;31.04;99386.60;532076;1098;116432;-60
2021/05/27 10:15:18;;;;;;;3.80;1.00;;;;;;;20.53;32.32;99389.39;522304;1093;117192;-66
2021/05/27 10:25:28;;;;;;;2.15;0.80;;;;;;;19.60;32.98;99396.59;526797;1098;116870;-62
2021/05/27 10:35:49;;;;;;;2.07;0.87;;;;;;;19.58;33.72;99407.44;532015;1097;116654;-62
2021/05/27 10:46:09;;;;;;;6.23;0.90;;;;;;;20.05;33.13;99407.05;522439;1098;116866;-61
2021/05/27 10:56:16;;;;;;;3.00;1.00;;;;;;;20.09;33.20;99398.56;530571;1098;116544;-65
2021/05/27 11:06:29;;;;;;;2.43;0.97;;;;;;;20.16;33.54;99401.40;528811;1098;117333;-63
2021/05/27 11:16:34;;;;;;;12.07;1.53;;;;;;;20.34;33.37;99405.75;532112;1098;116184;-62
2021/05/27 11:26:39;;;;;;;2.17;0.90;;;;;;;20.81;32.93;99402.41;527249;1098;116413;-59
2021/05/27 11:36:59;;;;;;;2.53;0.90;;;;;;;20.62;32.43;99403.57;531338;1098;116727;-61
2021/05/27 11:47:04;;;;;;;6.70;1.00;;;;;;;20.29;32.65;99404.39;532099;1098;115887;-62
2021/05/27 11:57:09;;;;;;;2.77;0.90;;;;;;;20.44;32.34;99393.91;532124;1098;115749;-62
2021/05/27 12:07:17;;;;;;;2.83;0.93;;;;;;;20.96;32.31;99378.52;529501;1093;115811;-61
2021/05/27 12:17:31;;;;;;;3.53;0.88;;;;;;;20.71;32.28;99365.19;520736;1094;119695;-60
2021/05/27 12:27:44;;;;;;;2.20;0.87;;;;;;;20.70;32.03;99371.52;520273;1098;116380;-58
2021/05/27 12:49:06;;;;;;;5.27;0.80;;;;;;;20.78;31.29;99360.03;515332;1098;115854;-61
2021/05/27 12:59:12;;;;;;;3.50;1.00;;;;;;;21.11;31.77;99365.27;519409;1098;115808;-61
2021/05/27 13:09:19;;;;;;;2.47;0.80;;;;;;;20.96;31.25;99377.67;519656;1098;116146;-61
2021/05/27 13:19:32;;;;;;;6.80;0.90;;;;;;;21.03;31.72;99380.48;531298;1098;116449;-60
2021/05/27 13:29:49;;;;;;;3.27;0.90;;;;;;;21.10;31.43;99379.63;532102;1098;117071;-60
2021/05/27 13:39:54;;;;;;;2.07;0.60;;;;;;;21.29;30.95;99380.23;531408;1098;116611;-58
2021/05/27 13:50:00;;;;;;;2.37;1.20;;;;;;;21.02;31.32;99363.66;532094;1098;117068;-60
2021/05/27 14:00:07;;;;;;;0.60;0.60;;;;;;;21.18;31.17;99373.45;532175;1098;117730;-62
2021/05/27 14:10:13;;;;;;;7.00;1.40;;;;;;;21.10;31.25;99368.94;531360;1098;116839;-64
2021/05/27 14:20:19;;;;;;;5.33;2.10;;;;;;;20.76;31.76;99375.34;532082;1097;115321;-58
2021/05/27 14:30:24;;;;;;;2.47;0.87;;;;;;;20.06;31.97;99392.73;532102;1098;116973;-68
2021/05/27 14:40:29;;;;;;;5.80;1.43;;;;;;;19.22;33.30;99381.02;524967;1098;116074;-64
2021/05/27 14:50:34;;;;;;;2.30;1.07;;;;;;;18.63;34.53;99384.29;528723;1098;116597;-65
2021/05/27 15:00:39;;;;;;;2.60;1.57;;;;;;;18.25;35.90;99378.37;520000;1098;116721;-66
2021/05/27 15:10:45;;;;;;;2.10;1.20;;;;;;;18.04;36.54;99387.48;532202;1098;115985;-65
2021/05/27 15:20:50;;;;;;;5.07;1.73;;;;;;;17.62;37.07;99379.09;532203;1098;116120;-66
2021/05/27 15:30:55;;;;;;;3.10;0.93;;;;;;;17.75;37.94;99388.52;514246;1098;116010;-66
2021/05/27 15:41:00;;;;;;;1.27;1.17;;;;;;;18.10;37.69;99376.27;514584;1093;115960;-67
2021/05/27 15:51:06;;;;;;;3.17;1.87;;;;;;;18.53;36.96;99360.47;519081;1098;115995;-65
2021/05/27 16:01:11;;;;;;;4.70;0.93;;;;;;;18.35;37.36;99368.48;531404;1098;116277;-66
2021/05/27 16:11:17;;;;;;;2.40;0.80;;;;;;;18.11;37.55;99375.27;525823;1098;115913;-66
2021/05/27 16:21:26;;;;;;;8.90;1.40;;;;;;;17.80;38.12;99380.92;532157;1098;116548;-66
2021/05/27 16:31:31;;;;;;;3.05;1.10;;;;;;;17.49;39.35;99390.05;532138;1097;116388;-65
2021/05/27 16:41:36;;;;;;;2.63;1.10;;;;;;;17.47;39.51;99383.21;532036;1098;115870;-65
2021/05/27 16:51:48;;;;;;;3.23;1.00;;;;;;;17.28;39.71;99376.19;529314;1098;117242;-65
2021/05/27 17:01:53;;;;;;;0.83;0.83;;;;;;;16.92;40.01;99377.70;532068;1098;116515;-65
2021/05/27 17:12:01;;;;;;;1.73;0.88;;;;;;;16.76;40.63;99380.95;532131;1098;116188;-65
2021/05/27 17:22:06;;;;;;;2.30;0.93;;;;;;;16.54;40.73;99374.19;529797;1098;116161;-66
2021/05/27 17:32:11;;;;;;;3.37;1.00;;;;;;;16.32;41.33;99386.77;528036;1098;116209;-65
2021/05/27 17:42:16;;;;;;;3.07;0.90;;;;;;;16.08;42.24;99409.21;532115;1098;116819;-65
2021/05/27 17:52:21;;;;;;;3.00;1.05;;;;;;;15.69;43.38;99402.02;531375;1098;116621;-65
2021/05/27 18:02:26;;;;;;;4.90;1.80;;;;;;;15.38;43.98;99394.13;532116;1098;116794;-65
2021/05/27 18:12:31;;;;;;;5.20;1.37;;;;;;;15.11;44.99;99398.22;531347;1098;116259;-66
2021/05/27 18:22:36;;;;;;;4.88;1.23;;;;;;;14.60;46.49;99402.50;514133;1098;10001816;-62
2021/05/27 18:32:42;;;;;;;16.77;3.23;;;;;;;14.10;47.98;99413.65;527093;1098;117163;-58
2021/05/27 18:42:47;;;;;;;2.43;2.10;;;;;;;13.55;49.32;99414.49;515905;1098;116323;-57
2021/05/27 18:52:52;;;;;;;3.03;2.10;;;;;;;13.08;51.07;99439.16;514748;1098;115985;-51
2021/05/27 19:02:57;;;;;;;11.00;2.90;;;;;;;12.63;52.28;99457.51;515210;1098;116464;-60
2021/05/27 19:13:03;;;;;;;8.27;2.47;;;;;;;12.22;53.89;99462.25;515560;1098;116796;-61
2021/05/27 19:23:08;;;;;;;9.43;3.60;;;;;;;11.87;54.96;99471.73;515502;1098;115376;-60
2021/05/27 19:33:14;;;;;;;6.63;4.20;;;;;;;11.54;56.53;99473.17;515215;1098;118018;-60
2021/05/27 19:43:19;;;;;;;6.60;4.77;;;;;;;11.27;57.87;99477.60;515185;1098;116509;-61
2021/05/27 19:53:24;;;;;;;4.90;3.30;;;;;;;11.37;57.58;99495.38;516142;1098;116838;-61
2021/05/27 20:03:29;;;;;;;5.27;3.10;;;;;;;11.41;57.08;99510.83;515942;1098;116104;-60
2021/05/27 20:13:34;;;;;;;4.17;3.10;;;;;;;11.22;57.24;99521.77;514809;1098;115923;-60
2021/05/27 20:23:39;;;;;;;5.43;3.27;;;;;;;11.02;58.22;99533.61;515319;1098;116690;-61
2021/05/27 20:33:44;;;;;;;7.90;3.97;;;;;;;10.80;59.01;99535.06;515305;1098;116135;-60
2021/05/27 20:43:49;;;;;;;4.43;2.70;;;;;;;10.59;59.63;99546.02;514918;1098;117005;-58
2021/05/27 20:53:55;;;;;;;5.70;3.03;;;;;;;10.34;60.24;99544.09;518841;1098;116135;-59
2021/05/27 21:04:00;;;;;;;8.73;3.00;;;;;;;10.11;61.36;99546.39;515028;1098;116310;-58
2021/05/27 21:14:05;;;;;;;2.90;2.70;;;;;;;9.87;61.76;99541.73;514684;1098;116799;-59
2021/05/27 21:24:11;;;;;;;3.97;3.27;;;;;;;9.69;62.52;99543.72;515547;1093;116316;-59
2021/05/27 21:34:16;;;;;;;4.83;3.43;;;;;;;9.71;63.33;99556.75;515057;1098;115915;-59
2021/05/27 21:44:21;;;;;;;6.68;3.60;;;;;;;9.61;63.42;99552.05;515388;1098;116001;-59
2021/05/27 21:54:26;;;;;;;9.43;6.20;;;;;;;9.56;63.95;99553.27;515888;1097;115784;-60
2021/05/27 22:04:31;;;;;;;10.13;6.53;;;;;;;9.59;64.31;99560.94;514346;1094;118879;-58
2021/05/27 22:14:36;;;;;;;14.30;9.50;;;;;;;9.74;64.84;99567.86;515149;1094;116144;-59
2021/05/27 22:24:41;;;;;;;13.70;8.85;;;;;;;9.96;65.01;99561.30;516221;1098;116179;-59
2021/05/27 22:34:46;;;;;;;8.57;6.33;;;;;;;10.05;65.17;99573.03;514757;1093;116442;-60
2021/05/27 22:44:51;;;;;;;7.97;6.53;;;;;;;9.92;65.21;99575.55;514955;1098;116570;-60
2021/05/27 22:54:56;;;;;;;8.00;6.97;;;;;;;9.66;65.23;99580.63;529842;1098;116921;-58
2021/05/27 23:05:01;;;;;;;7.65;6.55;;;;;;;9.37;66.03;99580.57;526572;1098;116885;-58
2021/05/27 23:15:09;;;;;;;11.05;6.45;;;;;;;9.09;66.93;99575.17;521819;1098;115073;-58
2021/05/27 23:25:15;;;;;;;6.43;5.60;;;;;;;8.95;67.40;99581.23;515213;1093;115786;-59
2021/05/27 23:35:20;;;;;;;7.97;6.73;;;;;;;8.66;67.74;99577.66;515289;1098;116348;-59
2021/05/27 23:45:26;;;;;;;9.43;6.47;;;;;;;8.60;68.34;99581.46;521887;1098;116224;-57
2021/05/27 23:55:31;;;;;;;8.15;6.50;;;;;;;8.65;68.84;99575.94;531360;1098;116232;-57
